world map with HSSJ marked

HSSJ - Airport

This information may not be accurate or current and is not valid for navigation or flight planning. No warranty of fitness for any purpose is made or implied.

flag of South Sudan

Donate via PayPal

Additional information is available on the NEW Great Circle Mapper

Location
City:  Juba, Central Equatoria, South Sudan
Near (Alt.):Djouba
Name:Juba International Airport
ICAO / IATA:HSSJ / JUB

Details
Type:Airport (Aerodrome, Airfield)
Latitude:4°52'19"N (4.872006)
Longitude:31°36'04"E (31.601117)
Datum:WGS 1984
Elevation:1513 ft (461 m)
Runways:1
Longest:7874 × 148 ft (2400 × 45 m)

Time
Timezone:UTC+3 (DST+5)
Local Time:

Weather
METAR:HSSJ  (expired)
TAF:HSSJ  200500Z 2006/2112 19004KT CAVOK TEMPO 2009/2015 12004KT 9999 FEW040 SCT040

Related Locations
Nearby:
Farthest:NHV: 11824 mi / 19028 km
Nuku Hiva, Marquesas Islands, PF

Find:

   beyond  
but within

Other Information
Maps:
Sources:

  


 


Great Circle Mapper   Great Circle Mapper
Great Circle Mapper FAQ   Great Circle Mapper FAQ
  Karl's Home Page
KLSē   KLSē Home
   GC on Facebook
Airlines of the World   Airlines of the World
Donate via PayPal


Copyright © 2004-2018, Karl L. Swartz. All rights reserved.
All trademarks mentioned herein belong to their respective owners.

Please see credits for attribution and copyright information.

Karl Swartz <karl@kls2.com>
  Powered by FreeBSD
Valid HTML 4.01!
Labeled with ICRA
hCard Microformat
Geo Microformat